Hlavní strana
METAR-TAF:

METAR-TAF

Letiště :

Letecká základna Cameri

Novara, Itálie

zeměpisná šířka: 45-31N, zeměpisná délka: 008-40E, výška: 178 m

Aktuální stav počasí

Zpráva byla vytvořena před 10 hodinami a 3 minutami, v 17:55 UTC
Jižní vítr 3 kt
Teplota 29°C
Vlhkost vzduchu 55%
Tlak 1012 hPa
Viditelnost 10 km a více
Žádná oblačnost pod 1500 m, nevyskytují se cumulonimby.

METAR: LIMN 151755Z 19003KT CAVOK 29/19 Q1012 RMK SKC VIS MIN 9999 BLU

Čas: 05:58 (03:58 UTC)

Předpověď počasí

Zpráva byla vytvořena před 10 hodinami a 58 minutami, v 17:00 UTC
Předpověď platná od 15 v 18 UTC do 16 v 03 UTC
vítr z různých směrů 3 kt
Viditelnost 10 km a více
Žádná oblačnost pod 1500 m, nevyskytují se cumulonimby.

TAF: LIMN 151700Z 1518/1603 VRB03KT CAVOK

Stav a předpovědi počasí z více než 4 000 letišť (zprávy METAR a TAF).

Červené a žluté tečky na mapě představují dostupné meteorologické stanice.

Když kurzor umístíte na tečku, zobrazí se název stanice.

Pak kliknutím zobrazíte stav a předpověď počasí.

Chcete-li změnit mapu, kliknutím na zelené tlačítko se znaménkem +mapu přiblížíte, kliknutím na zelené tlačítko se znaménkem – mapu oddálíte a kliknutím na zelené šipky přejdete na sousední mapy.


METAR-TAF: